createdAt,value
2023-10-16T00:00:34.001Z,100.00
2023-10-16T00:03:05.322Z,100.00
2023-10-16T00:05:39.383Z,100.00
2023-10-16T00:08:07.857Z,100.00
2023-10-16T00:10:36.606Z,100.00
2023-10-16T00:13:08.480Z,100.00
2023-10-16T00:15:41.372Z,100.00
2023-10-16T00:18:18.117Z,100.00
2023-10-16T00:20:46.635Z,100.00
2023-10-16T00:23:14.405Z,100.00
2023-10-16T00:25:44.329Z,100.00
2023-10-16T00:28:15.709Z,100.00
2023-10-16T00:30:44.528Z,100.00
2023-10-16T00:33:14.350Z,100.00
2023-10-16T00:35:44.825Z,100.00
2023-10-16T00:38:15.197Z,100.00
2023-10-16T00:40:45.973Z,100.00
2023-10-16T00:43:20.906Z,100.00
2023-10-16T00:45:51.269Z,100.00
2023-10-16T00:48:21.510Z,100.00
2023-10-16T00:50:49.732Z,100.00
2023-10-16T00:53:22.399Z,100.00
2023-10-16T00:55:51.233Z,100.00
2023-10-16T00:58:19.182Z,100.00
2023-10-16T01:00:48.219Z,100.00
2023-10-16T01:03:17.289Z,100.00
2023-10-16T01:05:50.969Z,100.00
2023-10-16T01:08:20.301Z,100.00
2023-10-16T01:10:49.971Z,100.00
2023-10-16T01:13:18.296Z,100.00
2023-10-16T01:15:48.088Z,100.00
2023-10-16T01:18:16.887Z,100.00
2023-10-16T01:20:50.093Z,100.00
2023-10-16T01:23:20.704Z,100.00
2023-10-16T01:25:50.426Z,100.00
2023-10-16T01:28:19.034Z,100.00
2023-10-16T01:30:50.573Z,100.00
2023-10-16T01:33:20.553Z,100.00
2023-10-16T01:35:48.841Z,100.00
2023-10-16T01:38:19.500Z,100.00
2023-10-16T01:41:03.566Z,100.00
2023-10-16T01:43:31.429Z,100.00
2023-10-16T01:46:09.748Z,100.00
2023-10-16T01:48:41.898Z,100.00
2023-10-16T01:51:10.322Z,100.00
2023-10-16T01:53:40.384Z,100.00
2023-10-16T01:56:14.472Z,100.00
2023-10-16T01:58:43.998Z,100.00
2023-10-16T02:01:12.649Z,100.00
2023-10-16T02:03:44.605Z,100.00
2023-10-16T02:06:13.492Z,100.00
2023-10-16T02:08:41.777Z,100.00
2023-10-16T02:11:12.026Z,100.00
2023-10-16T02:13:41.402Z,100.00
2023-10-16T02:16:11.384Z,100.00
2023-10-16T02:18:41.396Z,100.00
2023-10-16T02:21:12.723Z,100.00
2023-10-16T02:23:40.988Z,100.00
2023-10-16T02:26:09.300Z,100.00
2023-10-16T02:28:41.963Z,100.00
2023-10-16T02:31:15.005Z,100.00
2023-10-16T02:33:46.925Z,100.00
2023-10-16T02:36:15.080Z,100.00
2023-10-16T02:38:43.231Z,100.00
2023-10-16T02:41:11.137Z,100.00
2023-10-16T02:43:42.778Z,100.00
2023-10-16T02:46:11.264Z,100.00
2023-10-16T02:48:39.707Z,100.00
2023-10-16T02:51:07.954Z,100.00
2023-10-16T02:53:37.688Z,100.00
2023-10-16T02:56:07.094Z,100.00
2023-10-16T02:58:35.289Z,100.00
2023-10-16T03:01:08.244Z,100.00
2023-10-16T03:03:36.168Z,100.00
2023-10-16T03:06:04.908Z,100.00
2023-10-16T03:08:33.372Z,100.00
2023-10-16T03:11:06.482Z,100.00
2023-10-16T03:13:37.103Z,100.00
2023-10-16T03:16:17.450Z,100.00
2023-10-16T03:18:49.329Z,100.00
2023-10-16T03:21:29.009Z,100.00
2023-10-16T03:23:59.774Z,100.00
2023-10-16T03:26:29.922Z,100.00
2023-10-16T03:29:01.153Z,100.00
2023-10-16T03:31:31.690Z,100.00
2023-10-16T03:34:00.502Z,100.00
2023-10-16T03:36:30.024Z,100.00
2023-10-16T03:38:58.758Z,100.00
2023-10-16T03:41:33.433Z,100.00
2023-10-16T03:44:08.566Z,100.00
2023-10-16T03:46:39.711Z,100.00
2023-10-16T03:49:08.229Z,100.00
2023-10-16T03:51:36.198Z,100.00
2023-10-16T03:54:04.224Z,100.00
2023-10-16T03:56:32.548Z,100.00
2023-10-16T03:59:00.335Z,100.00
2023-10-16T04:01:29.828Z,100.00
2023-10-16T04:03:59.039Z,100.00
2023-10-16T04:06:29.021Z,100.00
2023-10-16T04:08:59.393Z,100.00
2023-10-16T04:11:27.200Z,100.00
2023-10-16T04:13:55.204Z,100.00
2023-10-16T04:16:44.027Z,100.00
2023-10-16T04:19:30.940Z,100.00
2023-10-16T04:22:08.443Z,100.00
2023-10-16T04:24:46.874Z,100.00
2023-10-16T04:27:30.571Z,100.00
2023-10-16T04:30:27.223Z,100.00
2023-10-16T04:33:12.564Z,100.00
2023-10-16T04:35:59.323Z,100.00
2023-10-16T04:38:32.717Z,100.00
2023-10-16T04:41:18.235Z,100.00
2023-10-16T04:44:13.849Z,100.00
2023-10-16T04:46:55.710Z,100.00
2023-10-16T04:49:29.764Z,100.00
2023-10-16T04:52:08.939Z,100.00
2023-10-16T04:54:56.843Z,100.00
2023-10-16T04:57:44.480Z,100.00
2023-10-16T05:00:29.549Z,100.00
2023-10-16T05:03:16.757Z,100.00
2023-10-16T05:06:05.033Z,100.00
2023-10-16T05:08:39.896Z,100.00
2023-10-16T05:11:21.995Z,100.00
2023-10-16T05:13:57.589Z,100.00
2023-10-16T05:16:37.051Z,100.00
2023-10-16T05:19:05.759Z,100.00
2023-10-16T05:21:53.279Z,100.00
2023-10-16T05:24:40.352Z,100.00
2023-10-16T05:27:25.799Z,100.00
2023-10-16T05:30:11.244Z,100.00
2023-10-16T05:32:56.394Z,100.00
2023-10-16T05:35:41.776Z,100.00
2023-10-16T05:38:27.748Z,100.00
2023-10-16T05:41:23.132Z,100.00
2023-10-16T05:44:08.368Z,100.00
2023-10-16T05:46:54.425Z,100.00
2023-10-16T05:49:39.788Z,100.00
2023-10-16T05:52:25.618Z,100.00
2023-10-16T05:55:11.678Z,100.00
2023-10-16T05:57:58.526Z,100.00
2023-10-16T06:00:49.267Z,100.00
2023-10-16T06:03:34.768Z,100.00
2023-10-16T06:06:19.986Z,100.00
2023-10-16T06:09:05.302Z,100.00
2023-10-16T06:11:51.554Z,100.00
2023-10-16T06:14:21.794Z,100.00
2023-10-16T06:16:51.997Z,100.00
2023-10-16T06:19:19.847Z,100.00
2023-10-16T06:21:50.390Z,100.00
2023-10-16T06:24:28.453Z,100.00
2023-10-16T06:26:59.308Z,100.00
2023-10-16T06:29:35.752Z,100.00
2023-10-16T06:32:07.591Z,100.00
2023-10-16T06:34:35.375Z,100.00
2023-10-16T06:37:06.632Z,100.00
2023-10-16T06:39:37.693Z,100.00
2023-10-16T06:42:06.083Z,100.00
2023-10-16T06:44:35.915Z,100.00
2023-10-16T06:47:04.030Z,100.00
2023-10-16T06:49:36.825Z,100.00
2023-10-16T06:52:06.341Z,100.00
2023-10-16T06:54:38.494Z,100.00
2023-10-16T06:57:12.138Z,100.00
2023-10-16T06:59:43.003Z,100.00
2023-10-16T07:02:16.720Z,100.00
2023-10-16T07:04:45.906Z,100.00
2023-10-16T07:07:19.315Z,100.00
2023-10-16T07:09:50.020Z,100.00
2023-10-16T07:12:18.741Z,100.00
2023-10-16T07:14:56.826Z,100.00
2023-10-16T07:17:26.308Z,100.00
2023-10-16T07:19:59.887Z,100.00
2023-10-16T07:22:32.752Z,100.00
2023-10-16T07:25:10.172Z,100.00
2023-10-16T07:27:38.312Z,100.00
2023-10-16T07:30:23.037Z,100.00
2023-10-16T07:32:51.288Z,100.00
2023-10-16T07:35:19.516Z,100.00
2023-10-16T07:37:50.061Z,100.00
2023-10-16T07:40:18.041Z,100.00
2023-10-16T07:42:48.075Z,100.00
2023-10-16T07:45:17.605Z,100.00
2023-10-16T07:47:46.043Z,100.00
2023-10-16T07:50:13.878Z,100.00
2023-10-16T07:52:43.250Z,100.00
2023-10-16T07:55:19.578Z,100.00
2023-10-16T07:57:48.988Z,100.00
2023-10-16T08:00:26.847Z,100.00
2023-10-16T08:03:06.338Z,100.00
2023-10-16T08:05:34.666Z,100.00
2023-10-16T08:08:13.121Z,100.00
2023-10-16T08:10:43.680Z,100.00
2023-10-16T08:13:14.958Z,100.00
2023-10-16T08:15:50.500Z,100.00
2023-10-16T08:18:20.072Z,100.00
2023-10-16T08:21:06.371Z,100.00
2023-10-16T08:23:36.366Z,100.00
2023-10-16T08:26:15.613Z,100.00
2023-10-16T08:28:46.435Z,100.00
2023-10-16T08:31:25.312Z,100.00
2023-10-16T08:33:55.940Z,100.00
2023-10-16T08:36:25.686Z,100.00
2023-10-16T08:38:54.413Z,100.00
2023-10-16T08:41:44.048Z,100.00
2023-10-16T08:44:16.220Z,100.00
2023-10-16T08:47:03.986Z,100.00
2023-10-16T08:49:34.559Z,100.00
2023-10-16T08:52:09.975Z,100.00
2023-10-16T08:54:54.714Z,100.00
2023-10-16T08:57:23.457Z,100.00
2023-10-16T08:59:51.968Z,100.00
2023-10-16T09:02:23.718Z,100.00
2023-10-16T09:04:53.899Z,100.00
2023-10-16T09:07:21.976Z,100.00
2023-10-16T09:09:50.295Z,100.00
2023-10-16T09:12:25.349Z,100.00
2023-10-16T09:14:53.315Z,100.00
2023-10-16T09:17:26.878Z,100.00
2023-10-16T09:20:05.284Z,100.00
2023-10-16T09:22:33.912Z,100.00
2023-10-16T09:25:01.927Z,100.00
2023-10-16T09:27:32.362Z,100.00
2023-10-16T09:30:02.433Z,100.00
2023-10-16T09:32:37.538Z,100.00
2023-10-16T09:35:07.909Z,100.00
2023-10-16T09:37:37.185Z,100.00
2023-10-16T09:40:28.185Z,100.00
2023-10-16T09:43:07.253Z,100.00
2023-10-16T09:45:36.224Z,100.00
2023-10-16T09:48:10.156Z,100.00
2023-10-16T09:50:39.246Z,100.00
2023-10-16T09:53:09.176Z,100.00
2023-10-16T09:55:39.975Z,97.46
2023-10-16T09:58:08.886Z,98.30
2023-10-16T10:00:47.786Z,96.97
2023-10-16T10:03:19.615Z,95.89
2023-10-16T10:05:56.500Z,93.56
2023-10-16T10:08:39.999Z,93.51
2023-10-16T10:11:29.116Z,92.29
2023-10-16T10:14:12.526Z,91.11
2023-10-16T10:16:46.561Z,91.64
2023-10-16T10:19:32.594Z,89.24
2023-10-16T10:22:07.137Z,87.28
2023-10-16T10:24:36.547Z,88.38
2023-10-16T10:27:05.985Z,88.82
2023-10-16T10:29:35.951Z,88.10
2023-10-16T10:32:13.834Z,83.60
2023-10-16T10:34:44.750Z,84.67
2023-10-16T10:37:46.735Z,84.48
2023-10-16T10:40:23.250Z,84.54
2023-10-16T10:42:58.704Z,81.89
2023-10-16T10:45:35.569Z,78.31
2023-10-16T10:48:10.575Z,80.56
2023-10-16T10:50:41.902Z,78.96
2023-10-16T10:53:15.658Z,78.67
2023-10-16T10:55:57.311Z,76.93
2023-10-16T10:58:33.144Z,77.13
2023-10-16T11:01:17.907Z,77.01
2023-10-16T11:03:47.439Z,75.21
2023-10-16T11:06:21.085Z,74.88
2023-10-16T11:08:50.114Z,75.66
2023-10-16T11:11:18.396Z,75.33
2023-10-16T11:13:47.777Z,75.12
2023-10-16T11:16:16.181Z,71.77
2023-10-16T11:18:58.190Z,71.60
2023-10-16T11:21:28.915Z,71.68
2023-10-16T11:24:01.481Z,72.37
2023-10-16T11:26:30.007Z,72.21
2023-10-16T11:29:01.349Z,71.50
2023-10-16T11:31:29.774Z,72.25
2023-10-16T11:34:08.917Z,71.54
2023-10-16T11:36:44.428Z,70.83
2023-10-16T11:39:20.956Z,70.82
2023-10-16T11:41:50.508Z,70.79
2023-10-16T11:44:20.332Z,69.89
2023-10-16T11:46:53.781Z,70.13
2023-10-16T11:49:30.825Z,68.23
2023-10-16T11:52:09.766Z,70.24
2023-10-16T11:54:41.462Z,70.39
2023-10-16T11:57:14.534Z,69.69
2023-10-16T11:59:42.953Z,69.68
2023-10-16T12:02:13.885Z,68.80
2023-10-16T12:04:44.048Z,67.41
2023-10-16T12:07:15.219Z,67.31
2023-10-16T12:09:49.414Z,67.82
2023-10-16T12:12:21.621Z,66.33
2023-10-16T12:14:51.218Z,66.76
2023-10-16T12:17:21.992Z,65.74
2023-10-16T12:19:53.583Z,66.07
2023-10-16T12:22:23.375Z,64.74
2023-10-16T12:24:51.518Z,66.13
2023-10-16T12:27:19.829Z,65.28
2023-10-16T12:29:47.807Z,64.60
2023-10-16T12:32:19.568Z,65.76
2023-10-16T12:34:47.515Z,66.69
2023-10-16T12:37:15.540Z,66.22
2023-10-16T12:39:48.611Z,67.00
2023-10-16T12:42:17.356Z,66.28
2023-10-16T12:44:45.990Z,65.67
2023-10-16T12:47:24.239Z,65.57
2023-10-16T12:50:00.190Z,66.18
2023-10-16T12:52:31.175Z,66.19
2023-10-16T12:55:01.601Z,66.87
2023-10-16T12:57:30.255Z,66.92
2023-10-16T12:59:58.408Z,66.32
2023-10-16T13:02:27.738Z,66.63
2023-10-16T13:04:57.228Z,66.15
2023-10-16T13:07:39.879Z,65.65
2023-10-16T13:10:15.682Z,64.37
2023-10-16T13:12:44.222Z,65.53
2023-10-16T13:15:15.903Z,65.66
2023-10-16T13:17:45.545Z,65.52
2023-10-16T13:20:18.217Z,64.97
2023-10-16T13:22:50.378Z,65.58
2023-10-16T13:25:20.146Z,65.75
2023-10-16T13:27:47.997Z,65.71
2023-10-16T13:30:18.300Z,65.75
2023-10-16T13:32:48.496Z,64.97
2023-10-16T13:35:19.752Z,63.97
2023-10-16T13:37:48.703Z,64.16
2023-10-16T13:40:24.148Z,62.62
2023-10-16T13:42:55.778Z,63.52
2023-10-16T13:45:26.731Z,64.08
2023-10-16T13:47:54.981Z,64.10
2023-10-16T13:50:26.145Z,64.30
2023-10-16T13:52:55.158Z,64.39
2023-10-16T13:55:23.854Z,63.71
2023-10-16T13:57:56.186Z,63.69
2023-10-16T14:00:32.418Z,63.69
2023-10-16T14:03:05.758Z,64.03
2023-10-16T14:05:42.489Z,63.96
2023-10-16T14:08:12.121Z,63.37
2023-10-16T14:10:47.023Z,63.84
2023-10-16T14:13:20.873Z,63.72
2023-10-16T14:15:50.482Z,63.15
2023-10-16T14:18:22.948Z,63.64
2023-10-16T14:20:50.988Z,64.07
2023-10-16T14:23:25.335Z,64.65
2023-10-16T14:25:59.235Z,64.44
2023-10-16T14:28:35.274Z,64.45
2023-10-16T14:31:05.003Z,64.21
2023-10-16T14:33:34.719Z,64.88
2023-10-16T14:36:05.318Z,65.00
2023-10-16T14:38:33.376Z,65.37
2023-10-16T14:41:10.875Z,65.76
2023-10-16T14:43:40.485Z,66.01
2023-10-16T14:46:11.912Z,65.75
2023-10-16T14:48:39.926Z,65.77
2023-10-16T14:51:07.861Z,66.67
2023-10-16T14:53:38.054Z,66.61
2023-10-16T14:56:07.565Z,66.70
2023-10-16T14:59:11.592Z,66.54
2023-10-16T15:01:29.292Z,66.40
2023-10-16T15:03:57.856Z,66.89
2023-10-16T15:06:25.903Z,66.81
2023-10-16T15:08:58.889Z,66.43
2023-10-16T15:11:28.366Z,67.40
2023-10-16T15:13:57.120Z,67.42
2023-10-16T15:16:28.520Z,68.02
2023-10-16T15:18:56.880Z,68.11
2023-10-16T15:21:25.617Z,68.45
2023-10-16T15:23:54.070Z,68.90
2023-10-16T15:26:21.941Z,69.24
2023-10-16T15:28:49.883Z,69.08
2023-10-16T15:31:18.274Z,69.37
2023-10-16T15:33:48.666Z,69.61
2023-10-16T15:36:19.452Z,69.22
2023-10-16T15:38:47.795Z,69.16
2023-10-16T15:41:15.838Z,69.19
2023-10-16T15:43:47.155Z,69.62
2023-10-16T15:46:27.594Z,69.84
2023-10-16T15:48:57.469Z,69.83
2023-10-16T15:51:26.398Z,69.84
2023-10-16T15:53:54.636Z,69.79
2023-10-16T15:56:24.204Z,70.04
2023-10-16T15:58:52.507Z,70.05
2023-10-16T16:01:23.104Z,70.37
2023-10-16T16:03:51.163Z,70.85
2023-10-16T16:06:20.946Z,70.97
2023-10-16T16:08:49.117Z,71.46
2023-10-16T16:11:17.918Z,71.81
2023-10-16T16:13:46.005Z,71.72
2023-10-16T16:16:14.259Z,71.65
2023-10-16T16:18:42.359Z,72.12
2023-10-16T16:21:14.630Z,72.05
2023-10-16T16:23:44.401Z,72.58
2023-10-16T16:26:12.296Z,72.70
2023-10-16T16:28:40.815Z,73.01
2023-10-16T16:31:10.954Z,73.30
2023-10-16T16:33:39.319Z,73.35
2023-10-16T16:36:10.336Z,73.69
2023-10-16T16:38:39.214Z,73.94
2023-10-16T16:41:12.403Z,74.01
2023-10-16T16:43:40.301Z,74.60
2023-10-16T16:46:09.036Z,75.18
2023-10-16T16:48:37.261Z,75.91
2023-10-16T16:51:05.833Z,76.71
2023-10-16T16:53:34.513Z,76.83
2023-10-16T16:56:02.360Z,77.80
2023-10-16T16:58:32.169Z,77.72
2023-10-16T17:01:00.014Z,78.19
2023-10-16T17:03:28.024Z,78.13
2023-10-16T17:05:57.440Z,78.50
2023-10-16T17:08:26.031Z,78.51
2023-10-16T17:10:54.717Z,78.17
2023-10-16T17:13:22.552Z,78.91
2023-10-16T17:15:51.787Z,78.94
2023-10-16T17:18:20.012Z,78.63
2023-10-16T17:20:48.367Z,79.37
2023-10-16T17:23:17.394Z,79.35
2023-10-16T17:25:45.481Z,79.57
2023-10-16T17:28:17.814Z,79.31
2023-10-16T17:30:47.156Z,79.41
2023-10-16T17:33:16.709Z,79.68
2023-10-16T17:35:45.718Z,80.24
2023-10-16T17:38:13.561Z,80.45
2023-10-16T17:40:41.788Z,80.84
2023-10-16T17:43:10.857Z,80.42
2023-10-16T17:45:38.669Z,80.51
2023-10-16T17:48:08.446Z,80.78
2023-10-16T17:50:37.867Z,80.65
2023-10-16T17:53:12.269Z,80.33
2023-10-16T17:55:41.301Z,80.38
2023-10-16T17:58:09.144Z,80.84
2023-10-16T18:00:41.297Z,80.65
2023-10-16T18:03:09.408Z,81.77
2023-10-16T18:05:38.647Z,81.66
2023-10-16T18:08:10.421Z,81.67
2023-10-16T18:10:42.366Z,82.12
2023-10-16T18:13:10.547Z,82.33
2023-10-16T18:15:38.883Z,82.71
2023-10-16T18:18:07.384Z,82.75
2023-10-16T18:20:36.837Z,82.97
2023-10-16T18:23:06.946Z,83.07
2023-10-16T18:25:34.760Z,83.33
2023-10-16T18:28:02.640Z,83.66
2023-10-16T18:30:30.574Z,83.50
2023-10-16T18:32:58.889Z,83.69
2023-10-16T18:35:26.875Z,83.97
2023-10-16T18:37:54.679Z,84.33
2023-10-16T18:40:23.843Z,84.34
2023-10-16T18:42:52.129Z,84.50
2023-10-16T18:45:21.584Z,84.40
2023-10-16T18:47:51.440Z,84.71
2023-10-16T18:50:19.891Z,84.75
2023-10-16T18:52:48.701Z,84.63
2023-10-16T18:55:16.930Z,84.79
2023-10-16T18:57:46.285Z,84.87
2023-10-16T19:00:16.714Z,85.18
2023-10-16T19:02:45.741Z,85.24
2023-10-16T19:05:13.796Z,84.96
2023-10-16T19:07:41.671Z,84.88
2023-10-16T19:10:10.895Z,84.91
2023-10-16T19:12:39.495Z,85.56
2023-10-16T19:15:10.601Z,85.16
2023-10-16T19:17:38.698Z,85.64
2023-10-16T19:20:08.946Z,86.17
2023-10-16T19:22:37.840Z,86.26
2023-10-16T19:25:09.258Z,86.46
2023-10-16T19:27:37.764Z,86.27
2023-10-16T19:30:09.647Z,86.68
2023-10-16T19:32:41.682Z,86.66
2023-10-16T19:35:10.398Z,86.73
2023-10-16T19:37:38.224Z,86.98
2023-10-16T19:40:13.552Z,87.24
2023-10-16T19:42:43.633Z,87.19
2023-10-16T19:45:14.566Z,87.64
2023-10-16T19:47:46.332Z,87.92
2023-10-16T19:50:16.201Z,88.09
2023-10-16T19:52:48.310Z,87.96
2023-10-16T19:55:20.223Z,88.44
2023-10-16T19:57:48.437Z,88.29
2023-10-16T20:00:25.309Z,88.61
2023-10-16T20:02:55.563Z,88.58
2023-10-16T20:05:25.372Z,88.65
2023-10-16T20:07:54.343Z,89.07
2023-10-16T20:10:22.154Z,89.21
2023-10-16T20:12:51.988Z,89.43
2023-10-16T20:15:24.347Z,89.38
2023-10-16T20:17:52.510Z,89.33
2023-10-16T20:20:25.598Z,89.63
2023-10-16T20:22:59.405Z,89.63
2023-10-16T20:25:37.804Z,89.44
2023-10-16T20:28:07.283Z,89.93
2023-10-16T20:30:36.944Z,89.84
2023-10-16T20:33:06.858Z,89.83
2023-10-16T20:35:37.462Z,89.77
2023-10-16T20:38:05.825Z,90.11
2023-10-16T20:40:35.638Z,89.69
2023-10-16T20:43:03.469Z,89.91
2023-10-16T20:45:31.528Z,89.99
2023-10-16T20:47:59.573Z,90.38
2023-10-16T20:50:28.418Z,90.53
2023-10-16T20:52:57.568Z,90.83
2023-10-16T20:55:25.709Z,91.15
2023-10-16T20:57:55.039Z,91.58
2023-10-16T21:00:28.634Z,91.69
2023-10-16T21:02:58.977Z,91.93
2023-10-16T21:05:27.956Z,91.93
2023-10-16T21:07:58.402Z,92.24
2023-10-16T21:10:28.010Z,92.12
2023-10-16T21:12:56.866Z,91.93
2023-10-16T21:15:25.665Z,92.23
2023-10-16T21:17:54.590Z,92.10
2023-10-16T21:20:22.767Z,91.71
2023-10-16T21:22:52.938Z,92.20
2023-10-16T21:25:25.340Z,91.88
2023-10-16T21:27:54.545Z,92.36
2023-10-16T21:30:24.119Z,92.53
2023-10-16T21:32:53.621Z,92.60
2023-10-16T21:35:23.429Z,92.42
2023-10-16T21:37:51.950Z,92.73
2023-10-16T21:40:22.565Z,92.84
2023-10-16T21:42:53.441Z,93.21
2023-10-16T21:45:22.994Z,93.23
2023-10-16T21:47:52.302Z,93.40
2023-10-16T21:50:20.969Z,93.69
2023-10-16T21:52:48.699Z,93.79
2023-10-16T21:55:16.594Z,94.24
2023-10-16T21:57:44.341Z,94.13
2023-10-16T22:00:30.418Z,94.33
2023-10-16T22:02:58.481Z,94.36
2023-10-16T22:05:26.477Z,94.79
2023-10-16T22:07:54.301Z,94.77
2023-10-16T22:10:22.099Z,94.95
2023-10-16T22:12:50.948Z,95.11
2023-10-16T22:15:20.965Z,95.08
2023-10-16T22:17:50.417Z,95.30
2023-10-16T22:20:19.726Z,95.23
2023-10-16T22:22:47.920Z,95.59
2023-10-16T22:25:17.666Z,95.47
2023-10-16T22:27:46.539Z,95.59
2023-10-16T22:30:16.203Z,95.73
2023-10-16T22:32:45.469Z,95.79
2023-10-16T22:35:13.283Z,95.97
2023-10-16T22:37:42.092Z,96.11
2023-10-16T22:40:15.766Z,96.17
2023-10-16T22:42:44.691Z,96.24
2023-10-16T22:45:14.091Z,96.27
2023-10-16T22:47:41.904Z,96.32
2023-10-16T22:50:12.585Z,95.97
2023-10-16T22:52:40.481Z,96.90
2023-10-16T22:55:08.795Z,97.32
2023-10-16T22:57:36.661Z,97.27
2023-10-16T23:00:06.441Z,97.22
2023-10-16T23:02:34.344Z,97.76
2023-10-16T23:05:03.851Z,97.30
2023-10-16T23:07:37.039Z,97.56
2023-10-16T23:10:13.306Z,97.62
2023-10-16T23:12:44.500Z,98.39
2023-10-16T23:15:20.564Z,98.06
2023-10-16T23:17:49.566Z,98.26
2023-10-16T23:20:18.745Z,98.11
2023-10-16T23:22:48.140Z,98.30
2023-10-16T23:25:16.015Z,98.41
2023-10-16T23:27:44.175Z,99.07
2023-10-16T23:30:16.465Z,99.06
2023-10-16T23:32:47.930Z,99.25
2023-10-16T23:35:21.093Z,99.20
2023-10-16T23:37:50.773Z,99.23
2023-10-16T23:40:38.502Z,99.51
2023-10-16T23:43:11.376Z,99.63
2023-10-16T23:45:40.842Z,99.20
2023-10-16T23:48:19.092Z,99.54
2023-10-16T23:50:49.617Z,99.04
2023-10-16T23:53:32.043Z,99.21
2023-10-16T23:56:10.637Z,99.78
2023-10-16T23:58:43.667Z,99.48
